sensor_id;sensor_type;location;lat;lon;timestamp;P1;durP1;ratioP1;P2;durP2;ratioP2
18360;SDS011;9308;48.550;9.108;2023-10-13T00:01:53;5.20;;;4.70;;
18360;SDS011;9308;48.550;9.108;2023-10-13T00:04:19;5.47;;;4.80;;
18360;SDS011;9308;48.550;9.108;2023-10-13T00:06:50;5.43;;;5.00;;
18360;SDS011;9308;48.550;9.108;2023-10-13T00:09:19;5.30;;;4.10;;
18360;SDS011;9308;48.550;9.108;2023-10-13T00:11:49;4.67;;;4.23;;
18360;SDS011;9308;48.550;9.108;2023-10-13T00:14:14;5.00;;;4.50;;
18360;SDS011;9308;48.550;9.108;2023-10-13T00:16:42;5.50;;;4.20;;
18360;SDS011;9308;48.550;9.108;2023-10-13T00:19:08;5.83;;;4.50;;
18360;SDS011;9308;48.550;9.108;2023-10-13T00:21:38;6.87;;;4.90;;
18360;SDS011;9308;48.550;9.108;2023-10-13T00:24:03;6.50;;;4.27;;
18360;SDS011;9308;48.550;9.108;2023-10-13T00:26:37;6.37;;;4.53;;
18360;SDS011;9308;48.550;9.108;2023-10-13T00:29:03;5.87;;;4.80;;
18360;SDS011;9308;48.550;9.108;2023-10-13T00:31:40;5.50;;;5.00;;
18360;SDS011;9308;48.550;9.108;2023-10-13T00:34:08;5.17;;;4.13;;
18360;SDS011;9308;48.550;9.108;2023-10-13T00:36:52;4.93;;;4.20;;
18360;SDS011;9308;48.550;9.108;2023-10-13T00:39:36;5.50;;;4.40;;
18360;SDS011;9308;48.550;9.108;2023-10-13T00:42:04;5.57;;;4.97;;
18360;SDS011;9308;48.550;9.108;2023-10-13T00:44:33;5.43;;;4.90;;
18360;SDS011;9308;48.550;9.108;2023-10-13T00:47:12;6.03;;;4.43;;
18360;SDS011;9308;48.550;9.108;2023-10-13T00:49:47;5.10;;;4.40;;
18360;SDS011;9308;48.550;9.108;2023-10-13T00:52:13;7.40;;;4.97;;
18360;SDS011;9308;48.550;9.108;2023-10-13T00:54:43;5.07;;;4.67;;
18360;SDS011;9308;48.550;9.108;2023-10-13T00:57:14;5.27;;;4.57;;
18360;SDS011;9308;48.550;9.108;2023-10-13T00:59:52;5.80;;;4.77;;
18360;SDS011;9308;48.550;9.108;2023-10-13T01:02:19;5.90;;;5.10;;
18360;SDS011;9308;48.550;9.108;2023-10-13T01:05:03;6.13;;;4.43;;
18360;SDS011;9308;48.550;9.108;2023-10-13T01:07:29;4.83;;;4.33;;
18360;SDS011;9308;48.550;9.108;2023-10-13T01:09:55;7.93;;;5.43;;
18360;SDS011;9308;48.550;9.108;2023-10-13T01:12:21;6.50;;;5.13;;
18360;SDS011;9308;48.550;9.108;2023-10-13T01:14:49;7.97;;;4.57;;
18360;SDS011;9308;48.550;9.108;2023-10-13T01:17:14;7.23;;;4.70;;
18360;SDS011;9308;48.550;9.108;2023-10-13T01:19:40;6.27;;;5.37;;
18360;SDS011;9308;48.550;9.108;2023-10-13T01:22:10;7.80;;;5.60;;
18360;SDS011;9308;48.550;9.108;2023-10-13T01:24:36;5.33;;;4.53;;
18360;SDS011;9308;48.550;9.108;2023-10-13T01:27:02;5.30;;;4.30;;
18360;SDS011;9308;48.550;9.108;2023-10-13T01:29:45;4.53;;;4.13;;
18360;SDS011;9308;48.550;9.108;2023-10-13T01:32:18;6.70;;;4.70;;
18360;SDS011;9308;48.550;9.108;2023-10-13T01:34:45;5.97;;;4.63;;
18360;SDS011;9308;48.550;9.108;2023-10-13T01:37:12;7.10;;;5.30;;
18360;SDS011;9308;48.550;9.108;2023-10-13T01:39:37;7.47;;;5.10;;
18360;SDS011;9308;48.550;9.108;2023-10-13T01:42:03;5.20;;;4.70;;
18360;SDS011;9308;48.550;9.108;2023-10-13T01:44:28;5.23;;;4.33;;
18360;SDS011;9308;48.550;9.108;2023-10-13T01:46:55;5.27;;;4.77;;
18360;SDS011;9308;48.550;9.108;2023-10-13T01:49:24;5.43;;;4.53;;
18360;SDS011;9308;48.550;9.108;2023-10-13T01:51:49;7.60;;;5.30;;
18360;SDS011;9308;48.550;9.108;2023-10-13T01:54:15;5.77;;;4.70;;
18360;SDS011;9308;48.550;9.108;2023-10-13T01:56:40;8.00;;;4.90;;
18360;SDS011;9308;48.550;9.108;2023-10-13T01:59:12;7.70;;;5.83;;
18360;SDS011;9308;48.550;9.108;2023-10-13T02:01:38;7.83;;;5.00;;
18360;SDS011;9308;48.550;9.108;2023-10-13T02:04:05;6.53;;;5.10;;
18360;SDS011;9308;48.550;9.108;2023-10-13T02:06:32;6.93;;;5.20;;
18360;SDS011;9308;48.550;9.108;2023-10-13T02:09:07;5.47;;;4.60;;
18360;SDS011;9308;48.550;9.108;2023-10-13T02:11:42;4.93;;;4.27;;
18360;SDS011;9308;48.550;9.108;2023-10-13T02:14:11;8.60;;;4.90;;
18360;SDS011;9308;48.550;9.108;2023-10-13T02:16:40;8.20;;;5.23;;
18360;SDS011;9308;48.550;9.108;2023-10-13T02:19:05;7.70;;;5.17;;
18360;SDS011;9308;48.550;9.108;2023-10-13T02:21:31;5.50;;;4.90;;
18360;SDS011;9308;48.550;9.108;2023-10-13T02:23:57;8.47;;;4.80;;
18360;SDS011;9308;48.550;9.108;2023-10-13T02:26:31;6.30;;;5.17;;
18360;SDS011;9308;48.550;9.108;2023-10-13T02:28:59;5.73;;;5.23;;
18360;SDS011;9308;48.550;9.108;2023-10-13T02:31:30;8.90;;;4.93;;
18360;SDS011;9308;48.550;9.108;2023-10-13T02:33:55;5.63;;;5.03;;
18360;SDS011;9308;48.550;9.108;2023-10-13T02:36:21;9.23;;;5.83;;
18360;SDS011;9308;48.550;9.108;2023-10-13T02:39:01;8.03;;;5.83;;
18360;SDS011;9308;48.550;9.108;2023-10-13T02:41:32;8.70;;;5.33;;
18360;SDS011;9308;48.550;9.108;2023-10-13T02:44:02;6.70;;;5.23;;
18360;SDS011;9308;48.550;9.108;2023-10-13T02:46:30;6.57;;;5.30;;
18360;SDS011;9308;48.550;9.108;2023-10-13T02:48:56;5.93;;;5.33;;
18360;SDS011;9308;48.550;9.108;2023-10-13T02:51:23;5.13;;;4.40;;
18360;SDS011;9308;48.550;9.108;2023-10-13T02:54:00;5.43;;;4.90;;
18360;SDS011;9308;48.550;9.108;2023-10-13T02:56:35;5.83;;;4.60;;
18360;SDS011;9308;48.550;9.108;2023-10-13T02:59:01;5.67;;;4.63;;
18360;SDS011;9308;48.550;9.108;2023-10-13T03:01:33;5.33;;;4.77;;
18360;SDS011;9308;48.550;9.108;2023-10-13T03:04:00;6.70;;;6.00;;
18360;SDS011;9308;48.550;9.108;2023-10-13T03:06:29;5.90;;;5.30;;
18360;SDS011;9308;48.550;9.108;2023-10-13T03:09:04;5.77;;;4.97;;
18360;SDS011;9308;48.550;9.108;2023-10-13T03:11:43;5.63;;;5.00;;
18360;SDS011;9308;48.550;9.108;2023-10-13T03:14:14;6.63;;;5.40;;
18360;SDS011;9308;48.550;9.108;2023-10-13T03:16:50;8.50;;;5.50;;
18360;SDS011;9308;48.550;9.108;2023-10-13T03:19:19;7.97;;;5.67;;
18360;SDS011;9308;48.550;9.108;2023-10-13T03:21:44;6.07;;;5.33;;
18360;SDS011;9308;48.550;9.108;2023-10-13T03:24:19;8.67;;;5.70;;
18360;SDS011;9308;48.550;9.108;2023-10-13T03:26:48;7.00;;;5.30;;
18360;SDS011;9308;48.550;9.108;2023-10-13T03:29:17;6.63;;;5.40;;
18360;SDS011;9308;48.550;9.108;2023-10-13T03:31:46;9.17;;;5.50;;
18360;SDS011;9308;48.550;9.108;2023-10-13T03:34:15;5.43;;;4.93;;
18360;SDS011;9308;48.550;9.108;2023-10-13T03:36:44;10.33;;;5.93;;
18360;SDS011;9308;48.550;9.108;2023-10-13T03:39:24;6.50;;;5.83;;
18360;SDS011;9308;48.550;9.108;2023-10-13T03:41:53;7.87;;;5.07;;
18360;SDS011;9308;48.550;9.108;2023-10-13T03:44:19;8.40;;;5.70;;
18360;SDS011;9308;48.550;9.108;2023-10-13T03:46:45;9.40;;;5.63;;
18360;SDS011;9308;48.550;9.108;2023-10-13T03:49:13;7.17;;;5.50;;
18360;SDS011;9308;48.550;9.108;2023-10-13T03:51:41;6.47;;;5.87;;
18360;SDS011;9308;48.550;9.108;2023-10-13T03:54:06;5.07;;;4.67;;
18360;SDS011;9308;48.550;9.108;2023-10-13T03:56:35;7.83;;;6.13;;
18360;SDS011;9308;48.550;9.108;2023-10-13T03:59:04;6.60;;;5.37;;
18360;SDS011;9308;48.550;9.108;2023-10-13T04:01:42;6.20;;;5.43;;
18360;SDS011;9308;48.550;9.108;2023-10-13T04:04:08;5.70;;;5.20;;
18360;SDS011;9308;48.550;9.108;2023-10-13T04:06:39;6.60;;;5.43;;
18360;SDS011;9308;48.550;9.108;2023-10-13T04:09:14;6.87;;;5.70;;
18360;SDS011;9308;48.550;9.108;2023-10-13T04:11:55;10.23;;;5.70;;
18360;SDS011;9308;48.550;9.108;2023-10-13T04:17:13;8.20;;;5.37;;
18360;SDS011;9308;48.550;9.108;2023-10-13T04:19:42;5.90;;;5.23;;
18360;SDS011;9308;48.550;9.108;2023-10-13T04:22:41;6.57;;;5.97;;
18360;SDS011;9308;48.550;9.108;2023-10-13T04:25:20;7.90;;;5.63;;
18360;SDS011;9308;48.550;9.108;2023-10-13T04:28:05;5.77;;;5.17;;
18360;SDS011;9308;48.550;9.108;2023-10-13T04:33:18;7.00;;;5.40;;
18360;SDS011;9308;48.550;9.108;2023-10-13T04:36:02;13.33;;;6.10;;
18360;SDS011;9308;48.550;9.108;2023-10-13T04:38:54;5.43;;;4.93;;
18360;SDS011;9308;48.550;9.108;2023-10-13T04:41:30;7.60;;;5.67;;
18360;SDS011;9308;48.550;9.108;2023-10-13T04:44:15;6.90;;;5.43;;
18360;SDS011;9308;48.550;9.108;2023-10-13T04:46:59;12.87;;;8.90;;
18360;SDS011;9308;48.550;9.108;2023-10-13T04:49:26;23.13;;;18.10;;
18360;SDS011;9308;48.550;9.108;2023-10-13T04:51:56;11.20;;;8.20;;
18360;SDS011;9308;48.550;9.108;2023-10-13T04:54:24;8.50;;;6.23;;
18360;SDS011;9308;48.550;9.108;2023-10-13T04:57:02;9.03;;;5.90;;
18360;SDS011;9308;48.550;9.108;2023-10-13T04:59:49;5.93;;;5.37;;
18360;SDS011;9308;48.550;9.108;2023-10-13T05:02:33;6.50;;;5.33;;
18360;SDS011;9308;48.550;9.108;2023-10-13T05:05:07;6.83;;;5.63;;
18360;SDS011;9308;48.550;9.108;2023-10-13T05:07:51;6.63;;;5.27;;
18360;SDS011;9308;48.550;9.108;2023-10-13T05:10:35;6.00;;;5.13;;
18360;SDS011;9308;48.550;9.108;2023-10-13T05:13:19;6.20;;;5.50;;
18360;SDS011;9308;48.550;9.108;2023-10-13T05:16:03;7.30;;;5.67;;
18360;SDS011;9308;48.550;9.108;2023-10-13T05:18:47;8.50;;;5.90;;
18360;SDS011;9308;48.550;9.108;2023-10-13T05:21:30;6.50;;;5.90;;
18360;SDS011;9308;48.550;9.108;2023-10-13T05:24:14;5.97;;;5.30;;
18360;SDS011;9308;48.550;9.108;2023-10-13T05:26:57;7.13;;;5.37;;
18360;SDS011;9308;48.550;9.108;2023-10-13T05:29:41;7.50;;;5.53;;
18360;SDS011;9308;48.550;9.108;2023-10-13T05:32:26;6.20;;;5.27;;
18360;SDS011;9308;48.550;9.108;2023-10-13T05:35:10;6.43;;;5.47;;
18360;SDS011;9308;48.550;9.108;2023-10-13T05:37:54;12.70;;;5.90;;
18360;SDS011;9308;48.550;9.108;2023-10-13T05:40:37;8.20;;;5.20;;
18360;SDS011;9308;48.550;9.108;2023-10-13T05:43:21;6.33;;;5.50;;
18360;SDS011;9308;48.550;9.108;2023-10-13T05:46:05;6.30;;;5.30;;
18360;SDS011;9308;48.550;9.108;2023-10-13T05:49:01;7.93;;;5.60;;
18360;SDS011;9308;48.550;9.108;2023-10-13T05:51:31;6.60;;;5.87;;
18360;SDS011;9308;48.550;9.108;2023-10-13T05:54:00;7.33;;;5.77;;
18360;SDS011;9308;48.550;9.108;2023-10-13T05:56:38;7.47;;;5.53;;
18360;SDS011;9308;48.550;9.108;2023-10-13T05:59:26;6.40;;;5.80;;
18360;SDS011;9308;48.550;9.108;2023-10-13T06:02:10;8.73;;;6.30;;
18360;SDS011;9308;48.550;9.108;2023-10-13T06:04:54;8.93;;;6.00;;
18360;SDS011;9308;48.550;9.108;2023-10-13T06:07:37;10.60;;;6.00;;
18360;SDS011;9308;48.550;9.108;2023-10-13T06:10:21;9.90;;;6.33;;
18360;SDS011;9308;48.550;9.108;2023-10-13T06:13:04;7.90;;;6.63;;
18360;SDS011;9308;48.550;9.108;2023-10-13T06:15:47;8.60;;;6.37;;
18360;SDS011;9308;48.550;9.108;2023-10-13T06:18:31;7.13;;;6.20;;
18360;SDS011;9308;48.550;9.108;2023-10-13T06:21:15;8.37;;;6.30;;
18360;SDS011;9308;48.550;9.108;2023-10-13T06:23:58;6.83;;;6.10;;
18360;SDS011;9308;48.550;9.108;2023-10-13T06:26:42;8.33;;;6.43;;
18360;SDS011;9308;48.550;9.108;2023-10-13T06:29:25;5.87;;;5.37;;
18360;SDS011;9308;48.550;9.108;2023-10-13T06:31:50;7.63;;;6.17;;
18360;SDS011;9308;48.550;9.108;2023-10-13T06:34:16;7.63;;;6.37;;
18360;SDS011;9308;48.550;9.108;2023-10-13T06:36:45;6.43;;;5.47;;
18360;SDS011;9308;48.550;9.108;2023-10-13T06:39:11;7.60;;;5.80;;
18360;SDS011;9308;48.550;9.108;2023-10-13T06:41:59;5.90;;;5.30;;
18360;SDS011;9308;48.550;9.108;2023-10-13T06:44:25;6.30;;;5.60;;
18360;SDS011;9308;48.550;9.108;2023-10-13T06:46:50;6.83;;;5.40;;
18360;SDS011;9308;48.550;9.108;2023-10-13T06:49:17;7.03;;;6.10;;
18360;SDS011;9308;48.550;9.108;2023-10-13T06:51:43;11.23;;;5.73;;
18360;SDS011;9308;48.550;9.108;2023-10-13T06:54:12;9.57;;;5.43;;
18360;SDS011;9308;48.550;9.108;2023-10-13T06:56:45;7.70;;;5.50;;
18360;SDS011;9308;48.550;9.108;2023-10-13T06:59:11;6.10;;;5.40;;
18360;SDS011;9308;48.550;9.108;2023-10-13T07:01:38;8.20;;;5.63;;
18360;SDS011;9308;48.550;9.108;2023-10-13T07:04:08;6.00;;;5.13;;
18360;SDS011;9308;48.550;9.108;2023-10-13T07:06:44;6.73;;;5.60;;
18360;SDS011;9308;48.550;9.108;2023-10-13T07:09:13;5.97;;;5.37;;
18360;SDS011;9308;48.550;9.108;2023-10-13T07:11:58;6.30;;;5.17;;
18360;SDS011;9308;48.550;9.108;2023-10-13T07:14:26;6.17;;;4.77;;
18360;SDS011;9308;48.550;9.108;2023-10-13T07:16:56;6.50;;;5.80;;
18360;SDS011;9308;48.550;9.108;2023-10-13T07:19:25;8.00;;;4.67;;
18360;SDS011;9308;48.550;9.108;2023-10-13T07:21:57;8.27;;;5.17;;
18360;SDS011;9308;48.550;9.108;2023-10-13T07:24:27;6.33;;;5.20;;
18360;SDS011;9308;48.550;9.108;2023-10-13T07:26:58;7.70;;;5.13;;
18360;SDS011;9308;48.550;9.108;2023-10-13T07:29:29;7.00;;;5.03;;
18360;SDS011;9308;48.550;9.108;2023-10-13T07:31:55;6.47;;;4.97;;
18360;SDS011;9308;48.550;9.108;2023-10-13T07:34:20;6.50;;;4.50;;
18360;SDS011;9308;48.550;9.108;2023-10-13T07:37:06;6.80;;;5.07;;
18360;SDS011;9308;48.550;9.108;2023-10-13T07:39:37;7.80;;;4.93;;
18360;SDS011;9308;48.550;9.108;2023-10-13T07:42:05;6.20;;;5.17;;
18360;SDS011;9308;48.550;9.108;2023-10-13T07:44:31;12.17;;;5.23;;
18360;SDS011;9308;48.550;9.108;2023-10-13T07:46:58;8.17;;;5.90;;
18360;SDS011;9308;48.550;9.108;2023-10-13T07:49:26;6.67;;;5.57;;
18360;SDS011;9308;48.550;9.108;2023-10-13T07:51:56;6.50;;;5.20;;
18360;SDS011;9308;48.550;9.108;2023-10-13T07:54:51;8.30;;;5.97;;
18360;SDS011;9308;48.550;9.108;2023-10-13T07:57:35;6.37;;;5.60;;
18360;SDS011;9308;48.550;9.108;2023-10-13T08:00:00;7.03;;;5.93;;
18360;SDS011;9308;48.550;9.108;2023-10-13T08:03:00;5.90;;;5.40;;
18360;SDS011;9308;48.550;9.108;2023-10-13T08:05:55;9.13;;;5.90;;
18360;SDS011;9308;48.550;9.108;2023-10-13T08:08:23;9.50;;;5.90;;
18360;SDS011;9308;48.550;9.108;2023-10-13T08:10:51;7.17;;;4.77;;
18360;SDS011;9308;48.550;9.108;2023-10-13T08:13:28;5.37;;;4.83;;
18360;SDS011;9308;48.550;9.108;2023-10-13T08:15:53;8.27;;;5.10;;
18360;SDS011;9308;48.550;9.108;2023-10-13T08:18:18;9.20;;;4.70;;
18360;SDS011;9308;48.550;9.108;2023-10-13T08:20:56;7.00;;;4.60;;
18360;SDS011;9308;48.550;9.108;2023-10-13T08:23:28;7.80;;;4.73;;
18360;SDS011;9308;48.550;9.108;2023-10-13T08:26:13;8.30;;;4.47;;
18360;SDS011;9308;48.550;9.108;2023-10-13T08:28:59;5.27;;;4.33;;
18360;SDS011;9308;48.550;9.108;2023-10-13T08:31:42;4.97;;;4.43;;
18360;SDS011;9308;48.550;9.108;2023-10-13T08:34:08;8.63;;;5.17;;
18360;SDS011;9308;48.550;9.108;2023-10-13T08:36:40;12.03;;;5.73;;
18360;SDS011;9308;48.550;9.108;2023-10-13T08:39:06;8.57;;;4.80;;
18360;SDS011;9308;48.550;9.108;2023-10-13T08:42:06;7.43;;;4.70;;
18360;SDS011;9308;48.550;9.108;2023-10-13T08:44:38;5.40;;;4.27;;
18360;SDS011;9308;48.550;9.108;2023-10-13T08:47:10;6.10;;;4.77;;
18360;SDS011;9308;48.550;9.108;2023-10-13T08:49:42;5.60;;;4.80;;
18360;SDS011;9308;48.550;9.108;2023-10-13T08:52:15;7.80;;;4.57;;
18360;SDS011;9308;48.550;9.108;2023-10-13T08:55:01;9.13;;;4.70;;
18360;SDS011;9308;48.550;9.108;2023-10-13T08:57:46;8.30;;;4.47;;
18360;SDS011;9308;48.550;9.108;2023-10-13T09:00:15;7.30;;;4.47;;
18360;SDS011;9308;48.550;9.108;2023-10-13T09:02:53;7.60;;;5.40;;
18360;SDS011;9308;48.550;9.108;2023-10-13T09:05:32;9.90;;;4.60;;
18360;SDS011;9308;48.550;9.108;2023-10-13T09:08:07;5.37;;;4.20;;
18360;SDS011;9308;48.550;9.108;2023-10-13T09:10:35;7.33;;;4.50;;
18360;SDS011;9308;48.550;9.108;2023-10-13T09:13:09;11.23;;;4.20;;
18360;SDS011;9308;48.550;9.108;2023-10-13T09:15:43;5.33;;;4.37;;
18360;SDS011;9308;48.550;9.108;2023-10-13T09:18:25;9.30;;;4.27;;
18360;SDS011;9308;48.550;9.108;2023-10-13T09:21:09;8.60;;;4.73;;
18360;SDS011;9308;48.550;9.108;2023-10-13T09:23:53;7.90;;;4.20;;
18360;SDS011;9308;48.550;9.108;2023-10-13T09:26:38;8.90;;;4.00;;
18360;SDS011;9308;48.550;9.108;2023-10-13T09:29:13;11.33;;;4.77;;
18360;SDS011;9308;48.550;9.108;2023-10-13T09:31:39;7.57;;;4.17;;
18360;SDS011;9308;48.550;9.108;2023-10-13T09:34:04;9.97;;;3.83;;
18360;SDS011;9308;48.550;9.108;2023-10-13T09:36:34;6.67;;;4.10;;
18360;SDS011;9308;48.550;9.108;2023-10-13T09:39:00;7.73;;;4.30;;
18360;SDS011;9308;48.550;9.108;2023-10-13T09:41:39;7.47;;;4.00;;
18360;SDS011;9308;48.550;9.108;2023-10-13T09:44:05;5.50;;;4.10;;
18360;SDS011;9308;48.550;9.108;2023-10-13T09:46:33;12.30;;;4.77;;
18360;SDS011;9308;48.550;9.108;2023-10-13T09:49:11;6.30;;;3.83;;
18360;SDS011;9308;48.550;9.108;2023-10-13T09:51:47;8.00;;;4.67;;
18360;SDS011;9308;48.550;9.108;2023-10-13T09:54:28;8.13;;;3.90;;
18360;SDS011;9308;48.550;9.108;2023-10-13T09:57:12;6.77;;;3.83;;
18360;SDS011;9308;48.550;9.108;2023-10-13T09:59:48;8.20;;;4.70;;
18360;SDS011;9308;48.550;9.108;2023-10-13T10:02:18;7.43;;;3.97;;
18360;SDS011;9308;48.550;9.108;2023-10-13T10:04:52;7.80;;;4.53;;
18360;SDS011;9308;48.550;9.108;2023-10-13T10:07:24;4.27;;;3.43;;
18360;SDS011;9308;48.550;9.108;2023-10-13T10:09:57;6.17;;;4.03;;
18360;SDS011;9308;48.550;9.108;2023-10-13T10:17:59;6.60;;;4.20;;
18360;SDS011;9308;48.550;9.108;2023-10-13T10:22:58;7.70;;;4.60;;
18360;SDS011;9308;48.550;9.108;2023-10-13T10:25:31;4.80;;;3.60;;
18360;SDS011;9308;48.550;9.108;2023-10-13T10:28:06;8.70;;;4.70;;
18360;SDS011;9308;48.550;9.108;2023-10-13T10:30:36;7.80;;;4.17;;
18360;SDS011;9308;48.550;9.108;2023-10-13T10:33:07;7.30;;;3.53;;
18360;SDS011;9308;48.550;9.108;2023-10-13T10:35:43;8.20;;;3.80;;
18360;SDS011;9308;48.550;9.108;2023-10-13T10:38:14;5.77;;;3.70;;
18360;SDS011;9308;48.550;9.108;2023-10-13T10:40:52;7.63;;;3.43;;
18360;SDS011;9308;48.550;9.108;2023-10-13T10:43:38;5.50;;;3.67;;
18360;SDS011;9308;48.550;9.108;2023-10-13T10:46:25;9.37;;;4.50;;
18360;SDS011;9308;48.550;9.108;2023-10-13T10:49:03;5.40;;;3.30;;
18360;SDS011;9308;48.550;9.108;2023-10-13T10:51:30;4.47;;;3.70;;
18360;SDS011;9308;48.550;9.108;2023-10-13T10:53:57;3.10;;;2.90;;
18360;SDS011;9308;48.550;9.108;2023-10-13T10:56:36;5.00;;;3.40;;
18360;SDS011;9308;48.550;9.108;2023-10-13T10:59:02;7.70;;;3.73;;
18360;SDS011;9308;48.550;9.108;2023-10-13T11:01:30;4.00;;;3.33;;
18360;SDS011;9308;48.550;9.108;2023-10-13T11:04:04;4.73;;;2.80;;
18360;SDS011;9308;48.550;9.108;2023-10-13T11:06:36;4.53;;;3.30;;
18360;SDS011;9308;48.550;9.108;2023-10-13T11:09:10;4.67;;;3.50;;
18360;SDS011;9308;48.550;9.108;2023-10-13T11:11:51;4.10;;;3.77;;
18360;SDS011;9308;48.550;9.108;2023-10-13T11:14:28;5.30;;;3.17;;
18360;SDS011;9308;48.550;9.108;2023-10-13T11:16:57;4.40;;;3.13;;
18360;SDS011;9308;48.550;9.108;2023-10-13T11:19:33;8.53;;;3.60;;
18360;SDS011;9308;48.550;9.108;2023-10-13T11:22:09;6.20;;;3.60;;
18360;SDS011;9308;48.550;9.108;2023-10-13T11:24:41;4.67;;;3.20;;
18360;SDS011;9308;48.550;9.108;2023-10-13T11:27:15;6.97;;;4.30;;
18360;SDS011;9308;48.550;9.108;2023-10-13T11:30:03;3.53;;;2.90;;
18360;SDS011;9308;48.550;9.108;2023-10-13T11:32:35;3.60;;;2.83;;
18360;SDS011;9308;48.550;9.108;2023-10-13T11:35:00;6.57;;;3.27;;
18360;SDS011;9308;48.550;9.108;2023-10-13T11:37:26;7.73;;;3.60;;
18360;SDS011;9308;48.550;9.108;2023-10-13T11:40:02;5.07;;;3.13;;
18360;SDS011;9308;48.550;9.108;2023-10-13T11:42:34;4.80;;;3.30;;
18360;SDS011;9308;48.550;9.108;2023-10-13T11:45:01;4.37;;;3.40;;
18360;SDS011;9308;48.550;9.108;2023-10-13T11:47:46;6.17;;;4.27;;
18360;SDS011;9308;48.550;9.108;2023-10-13T11:50:24;14.77;;;4.33;;
18360;SDS011;9308;48.550;9.108;2023-10-13T11:53:00;5.33;;;3.97;;
18360;SDS011;9308;48.550;9.108;2023-10-13T11:55:25;5.10;;;3.70;;
18360;SDS011;9308;48.550;9.108;2023-10-13T11:57:51;6.37;;;3.50;;
18360;SDS011;9308;48.550;9.108;2023-10-13T12:00:16;6.90;;;3.37;;
18360;SDS011;9308;48.550;9.108;2023-10-13T12:03:11;4.30;;;3.83;;
18360;SDS011;9308;48.550;9.108;2023-10-13T12:05:54;5.10;;;3.03;;
18360;SDS011;9308;48.550;9.108;2023-10-13T12:08:38;3.43;;;3.13;;
18360;SDS011;9308;48.550;9.108;2023-10-13T12:11:14;5.10;;;4.17;;
18360;SDS011;9308;48.550;9.108;2023-10-13T12:13:57;3.57;;;3.37;;
18360;SDS011;9308;48.550;9.108;2023-10-13T12:16:22;4.50;;;3.43;;
18360;SDS011;9308;48.550;9.108;2023-10-13T12:18:48;5.60;;;3.77;;
18360;SDS011;9308;48.550;9.108;2023-10-13T12:21:20;5.87;;;4.20;;
18360;SDS011;9308;48.550;9.108;2023-10-13T12:23:47;4.77;;;3.43;;
18360;SDS011;9308;48.550;9.108;2023-10-13T12:26:12;5.00;;;4.17;;
18360;SDS011;9308;48.550;9.108;2023-10-13T12:28:57;5.23;;;4.00;;
18360;SDS011;9308;48.550;9.108;2023-10-13T12:31:32;4.80;;;3.90;;
18360;SDS011;9308;48.550;9.108;2023-10-13T12:33:58;4.33;;;3.67;;
18360;SDS011;9308;48.550;9.108;2023-10-13T12:36:31;5.10;;;3.90;;
18360;SDS011;9308;48.550;9.108;2023-10-13T12:39:06;8.10;;;4.20;;
18360;SDS011;9308;48.550;9.108;2023-10-13T12:41:32;4.60;;;4.07;;
18360;SDS011;9308;48.550;9.108;2023-10-13T12:44:16;4.67;;;3.50;;
18360;SDS011;9308;48.550;9.108;2023-10-13T12:46:59;6.30;;;4.03;;
18360;SDS011;9308;48.550;9.108;2023-10-13T12:49:43;5.40;;;4.33;;
18360;SDS011;9308;48.550;9.108;2023-10-13T12:52:11;7.40;;;4.13;;
18360;SDS011;9308;48.550;9.108;2023-10-13T12:54:56;4.27;;;3.70;;
18360;SDS011;9308;48.550;9.108;2023-10-13T12:57:22;5.57;;;3.70;;
18360;SDS011;9308;48.550;9.108;2023-10-13T12:59:51;3.77;;;3.00;;
18360;SDS011;9308;48.550;9.108;2023-10-13T13:02:23;4.87;;;3.83;;
18360;SDS011;9308;48.550;9.108;2023-10-13T13:04:56;4.73;;;3.50;;
18360;SDS011;9308;48.550;9.108;2023-10-13T13:07:27;6.57;;;3.80;;
18360;SDS011;9308;48.550;9.108;2023-10-13T13:09:56;4.67;;;3.80;;
18360;SDS011;9308;48.550;9.108;2023-10-13T13:12:25;5.47;;;4.17;;
18360;SDS011;9308;48.550;9.108;2023-10-13T13:14:53;5.13;;;3.60;;
18360;SDS011;9308;48.550;9.108;2023-10-13T13:17:20;5.53;;;4.03;;
18360;SDS011;9308;48.550;9.108;2023-10-13T13:19:48;4.93;;;4.43;;
18360;SDS011;9308;48.550;9.108;2023-10-13T13:22:13;4.23;;;3.67;;
18360;SDS011;9308;48.550;9.108;2023-10-13T13:24:39;5.30;;;4.60;;
18360;SDS011;9308;48.550;9.108;2023-10-13T13:27:09;9.23;;;3.73;;
18360;SDS011;9308;48.550;9.108;2023-10-13T13:29:44;4.23;;;3.67;;
18360;SDS011;9308;48.550;9.108;2023-10-13T13:32:10;4.70;;;3.53;;
18360;SDS011;9308;48.550;9.108;2023-10-13T13:34:48;6.33;;;3.80;;
18360;SDS011;9308;48.550;9.108;2023-10-13T13:37:23;4.57;;;3.93;;
18360;SDS011;9308;48.550;9.108;2023-10-13T13:39:52;10.70;;;4.00;;
18360;SDS011;9308;48.550;9.108;2023-10-13T13:42:17;3.70;;;3.40;;
18360;SDS011;9308;48.550;9.108;2023-10-13T13:44:43;5.03;;;3.50;;
18360;SDS011;9308;48.550;9.108;2023-10-13T13:47:12;4.80;;;3.17;;
18360;SDS011;9308;48.550;9.108;2023-10-13T13:49:39;4.20;;;3.80;;
18360;SDS011;9308;48.550;9.108;2023-10-13T13:52:06;6.27;;;3.53;;
18360;SDS011;9308;48.550;9.108;2023-10-13T13:54:32;6.00;;;4.03;;
18360;SDS011;9308;48.550;9.108;2023-10-13T13:56:57;5.30;;;3.57;;
18360;SDS011;9308;48.550;9.108;2023-10-13T13:59:23;6.63;;;3.77;;
18360;SDS011;9308;48.550;9.108;2023-10-13T14:01:48;5.67;;;3.20;;
18360;SDS011;9308;48.550;9.108;2023-10-13T14:04:13;6.20;;;3.60;;
18360;SDS011;9308;48.550;9.108;2023-10-13T14:06:42;5.53;;;3.47;;
18360;SDS011;9308;48.550;9.108;2023-10-13T14:09:09;4.37;;;3.97;;
18360;SDS011;9308;48.550;9.108;2023-10-13T14:11:57;4.87;;;4.17;;
18360;SDS011;9308;48.550;9.108;2023-10-13T14:14:41;5.20;;;3.23;;
18360;SDS011;9308;48.550;9.108;2023-10-13T14:17:14;5.40;;;3.77;;
18360;SDS011;9308;48.550;9.108;2023-10-13T14:19:39;5.33;;;3.40;;
18360;SDS011;9308;48.550;9.108;2023-10-13T14:22:05;3.40;;;2.90;;
18360;SDS011;9308;48.550;9.108;2023-10-13T14:24:36;6.40;;;3.90;;
18360;SDS011;9308;48.550;9.108;2023-10-13T14:27:08;5.80;;;3.80;;
18360;SDS011;9308;48.550;9.108;2023-10-13T14:29:37;3.10;;;2.80;;
18360;SDS011;9308;48.550;9.108;2023-10-13T14:32:05;7.57;;;2.90;;
18360;SDS011;9308;48.550;9.108;2023-10-13T14:34:32;5.17;;;3.70;;
18360;SDS011;9308;48.550;9.108;2023-10-13T14:37:00;3.30;;;3.00;;
18360;SDS011;9308;48.550;9.108;2023-10-13T14:39:25;4.20;;;3.10;;
18360;SDS011;9308;48.550;9.108;2023-10-13T14:41:54;3.90;;;3.10;;
18360;SDS011;9308;48.550;9.108;2023-10-13T14:44:20;4.00;;;3.27;;
18360;SDS011;9308;48.550;9.108;2023-10-13T14:46:50;6.43;;;2.60;;
18360;SDS011;9308;48.550;9.108;2023-10-13T14:49:19;3.10;;;2.80;;
18360;SDS011;9308;48.550;9.108;2023-10-13T14:51:45;3.37;;;2.60;;
18360;SDS011;9308;48.550;9.108;2023-10-13T14:54:10;5.70;;;2.90;;
18360;SDS011;9308;48.550;9.108;2023-10-13T14:56:35;5.07;;;2.73;;
18360;SDS011;9308;48.550;9.108;2023-10-13T14:59:01;2.40;;;2.10;;
18360;SDS011;9308;48.550;9.108;2023-10-13T15:01:29;3.47;;;3.00;;
18360;SDS011;9308;48.550;9.108;2023-10-13T15:03:56;3.63;;;2.63;;
18360;SDS011;9308;48.550;9.108;2023-10-13T15:06:23;3.60;;;2.40;;
18360;SDS011;9308;48.550;9.108;2023-10-13T15:08:50;3.43;;;2.80;;
18360;SDS011;9308;48.550;9.108;2023-10-13T15:11:17;5.57;;;3.30;;
18360;SDS011;9308;48.550;9.108;2023-10-13T15:13:45;4.13;;;2.77;;
18360;SDS011;9308;48.550;9.108;2023-10-13T15:16:20;3.33;;;2.53;;
18360;SDS011;9308;48.550;9.108;2023-10-13T15:18:47;4.90;;;2.87;;
18360;SDS011;9308;48.550;9.108;2023-10-13T15:21:19;4.33;;;2.73;;
18360;SDS011;9308;48.550;9.108;2023-10-13T15:23:55;3.10;;;2.73;;
18360;SDS011;9308;48.550;9.108;2023-10-13T15:26:38;5.83;;;2.43;;
18360;SDS011;9308;48.550;9.108;2023-10-13T15:29:07;5.40;;;3.23;;
18360;SDS011;9308;48.550;9.108;2023-10-13T15:31:37;3.27;;;2.80;;
18360;SDS011;9308;48.550;9.108;2023-10-13T15:34:08;5.37;;;2.87;;
18360;SDS011;9308;48.550;9.108;2023-10-13T15:36:40;5.53;;;2.80;;
18360;SDS011;9308;48.550;9.108;2023-10-13T15:39:07;3.90;;;2.93;;
18360;SDS011;9308;48.550;9.108;2023-10-13T15:41:36;5.27;;;3.47;;
18360;SDS011;9308;48.550;9.108;2023-10-13T15:44:10;8.93;;;2.90;;
18360;SDS011;9308;48.550;9.108;2023-10-13T15:46:38;3.40;;;3.00;;
18360;SDS011;9308;48.550;9.108;2023-10-13T15:49:04;4.73;;;3.20;;